sensor_id;sensor_type;location;lat;lon;timestamp;P1;durP1;ratioP1;P2;durP2;ratioP2
8993;SDS011;4532;50.886;4.700;2023-03-11T00:01:11;11.07;;;5.00;;
8993;SDS011;4532;50.886;4.700;2023-03-11T00:03:38;8.67;;;4.90;;
8993;SDS011;4532;50.886;4.700;2023-03-11T00:06:08;8.60;;;4.57;;
8993;SDS011;4532;50.886;4.700;2023-03-11T00:08:35;11.77;;;4.77;;
8993;SDS011;4532;50.886;4.700;2023-03-11T00:11:04;10.07;;;3.60;;
8993;SDS011;4532;50.886;4.700;2023-03-11T00:13:31;9.37;;;3.50;;
8993;SDS011;4532;50.886;4.700;2023-03-11T00:16:02;7.70;;;3.43;;
8993;SDS011;4532;50.886;4.700;2023-03-11T00:18:30;6.73;;;3.17;;
8993;SDS011;4532;50.886;4.700;2023-03-11T00:20:59;8.63;;;3.73;;
8993;SDS011;4532;50.886;4.700;2023-03-11T00:23:29;9.73;;;3.00;;
8993;SDS011;4532;50.886;4.700;2023-03-11T00:26:01;7.13;;;2.67;;
8993;SDS011;4532;50.886;4.700;2023-03-11T00:28:28;7.87;;;3.10;;
8993;SDS011;4532;50.886;4.700;2023-03-11T00:31:00;7.87;;;2.47;;
8993;SDS011;4532;50.886;4.700;2023-03-11T00:33:28;8.27;;;3.47;;
8993;SDS011;4532;50.886;4.700;2023-03-11T00:35:56;6.50;;;2.57;;
8993;SDS011;4532;50.886;4.700;2023-03-11T00:38:30;7.90;;;2.70;;
8993;SDS011;4532;50.886;4.700;2023-03-11T00:41:02;7.43;;;2.30;;
8993;SDS011;4532;50.886;4.700;2023-03-11T00:43:32;7.43;;;2.80;;
8993;SDS011;4532;50.886;4.700;2023-03-11T00:46:02;7.47;;;2.43;;
8993;SDS011;4532;50.886;4.700;2023-03-11T00:48:30;7.63;;;2.83;;
8993;SDS011;4532;50.886;4.700;2023-03-11T00:51:00;9.37;;;3.67;;
8993;SDS011;4532;50.886;4.700;2023-03-11T00:53:29;6.23;;;2.67;;
8993;SDS011;4532;50.886;4.700;2023-03-11T00:56:04;11.30;;;2.90;;
8993;SDS011;4532;50.886;4.700;2023-03-11T00:58:33;5.80;;;2.83;;
8993;SDS011;4532;50.886;4.700;2023-03-11T01:03:45;8.73;;;3.20;;
8993;SDS011;4532;50.886;4.700;2023-03-11T01:06:12;8.90;;;3.17;;
8993;SDS011;4532;50.886;4.700;2023-03-11T01:08:40;8.33;;;2.87;;
8993;SDS011;4532;50.886;4.700;2023-03-11T01:11:07;6.37;;;2.93;;
8993;SDS011;4532;50.886;4.700;2023-03-11T01:13:35;7.97;;;3.37;;
8993;SDS011;4532;50.886;4.700;2023-03-11T01:16:02;5.97;;;2.70;;
8993;SDS011;4532;50.886;4.700;2023-03-11T01:18:32;7.20;;;3.00;;
8993;SDS011;4532;50.886;4.700;2023-03-11T01:21:02;7.10;;;2.87;;
8993;SDS011;4532;50.886;4.700;2023-03-11T01:23:30;7.27;;;2.70;;
8993;SDS011;4532;50.886;4.700;2023-03-11T01:25:59;4.97;;;2.50;;
8993;SDS011;4532;50.886;4.700;2023-03-11T01:28:28;10.87;;;3.10;;
8993;SDS011;4532;50.886;4.700;2023-03-11T01:30:56;5.30;;;2.20;;
8993;SDS011;4532;50.886;4.700;2023-03-11T01:33:27;5.77;;;2.37;;
8993;SDS011;4532;50.886;4.700;2023-03-11T01:35:57;6.60;;;2.70;;
8993;SDS011;4532;50.886;4.700;2023-03-11T01:38:26;8.63;;;2.63;;
8993;SDS011;4532;50.886;4.700;2023-03-11T01:40:53;5.70;;;2.50;;
8993;SDS011;4532;50.886;4.700;2023-03-11T01:48:47;5.57;;;2.83;;
8993;SDS011;4532;50.886;4.700;2023-03-11T01:51:23;6.97;;;2.37;;
8993;SDS011;4532;50.886;4.700;2023-03-11T01:53:59;5.27;;;2.63;;
8993;SDS011;4532;50.886;4.700;2023-03-11T01:56:30;7.33;;;2.50;;
8993;SDS011;4532;50.886;4.700;2023-03-11T01:58:58;4.93;;;2.40;;
8993;SDS011;4532;50.886;4.700;2023-03-11T02:01:33;4.97;;;2.33;;
8993;SDS011;4532;50.886;4.700;2023-03-11T02:04:05;6.57;;;2.40;;
8993;SDS011;4532;50.886;4.700;2023-03-11T02:06:35;3.13;;;2.03;;
8993;SDS011;4532;50.886;4.700;2023-03-11T02:09:02;6.33;;;2.20;;
8993;SDS011;4532;50.886;4.700;2023-03-11T02:11:32;5.33;;;2.00;;
8993;SDS011;4532;50.886;4.700;2023-03-11T02:14:03;6.77;;;2.43;;
8993;SDS011;4532;50.886;4.700;2023-03-11T02:16:36;5.53;;;2.20;;
8993;SDS011;4532;50.886;4.700;2023-03-11T02:19:08;4.60;;;2.13;;
8993;SDS011;4532;50.886;4.700;2023-03-11T02:21:53;4.97;;;2.20;;
8993;SDS011;4532;50.886;4.700;2023-03-11T02:27:11;6.47;;;2.27;;
8993;SDS011;4532;50.886;4.700;2023-03-11T02:29:44;7.50;;;2.50;;
8993;SDS011;4532;50.886;4.700;2023-03-11T02:32:15;5.50;;;2.43;;
8993;SDS011;4532;50.886;4.700;2023-03-11T02:34:44;7.30;;;2.37;;
8993;SDS011;4532;50.886;4.700;2023-03-11T02:37:12;6.60;;;2.70;;
8993;SDS011;4532;50.886;4.700;2023-03-11T02:39:45;7.10;;;2.23;;
8993;SDS011;4532;50.886;4.700;2023-03-11T02:45:07;7.17;;;2.33;;
8993;SDS011;4532;50.886;4.700;2023-03-11T02:47:37;6.00;;;2.30;;
8993;SDS011;4532;50.886;4.700;2023-03-11T02:50:06;6.03;;;2.20;;
8993;SDS011;4532;50.886;4.700;2023-03-11T02:52:39;6.67;;;2.47;;
8993;SDS011;4532;50.886;4.700;2023-03-11T02:55:12;6.77;;;2.20;;
8993;SDS011;4532;50.886;4.700;2023-03-11T02:57:42;6.67;;;2.20;;
8993;SDS011;4532;50.886;4.700;2023-03-11T03:00:12;5.77;;;2.77;;
8993;SDS011;4532;50.886;4.700;2023-03-11T03:02:44;5.63;;;2.37;;
8993;SDS011;4532;50.886;4.700;2023-03-11T03:05:12;6.00;;;2.40;;
8993;SDS011;4532;50.886;4.700;2023-03-11T03:07:41;8.60;;;2.60;;
8993;SDS011;4532;50.886;4.700;2023-03-11T03:10:11;7.17;;;2.60;;
8993;SDS011;4532;50.886;4.700;2023-03-11T03:12:40;8.80;;;2.73;;
8993;SDS011;4532;50.886;4.700;2023-03-11T03:15:10;7.13;;;2.33;;
8993;SDS011;4532;50.886;4.700;2023-03-11T03:17:37;6.10;;;2.97;;
8993;SDS011;4532;50.886;4.700;2023-03-11T03:20:05;4.10;;;2.27;;
8993;SDS011;4532;50.886;4.700;2023-03-11T03:22:37;6.57;;;2.50;;
8993;SDS011;4532;50.886;4.700;2023-03-11T03:25:10;7.77;;;2.90;;
8993;SDS011;4532;50.886;4.700;2023-03-11T03:27:40;6.90;;;2.77;;
8993;SDS011;4532;50.886;4.700;2023-03-11T03:30:12;6.73;;;2.63;;
8993;SDS011;4532;50.886;4.700;2023-03-11T03:32:44;7.13;;;2.57;;
8993;SDS011;4532;50.886;4.700;2023-03-11T03:35:12;7.33;;;2.63;;
8993;SDS011;4532;50.886;4.700;2023-03-11T03:37:39;8.73;;;2.67;;
8993;SDS011;4532;50.886;4.700;2023-03-11T03:40:10;5.93;;;2.90;;
8993;SDS011;4532;50.886;4.700;2023-03-11T03:42:38;8.00;;;2.97;;
8993;SDS011;4532;50.886;4.700;2023-03-11T03:45:08;6.20;;;2.53;;
8993;SDS011;4532;50.886;4.700;2023-03-11T03:47:38;5.33;;;2.83;;
8993;SDS011;4532;50.886;4.700;2023-03-11T03:50:07;5.97;;;2.70;;
8993;SDS011;4532;50.886;4.700;2023-03-11T03:52:43;5.83;;;2.50;;
8993;SDS011;4532;50.886;4.700;2023-03-11T03:55:13;5.00;;;2.63;;
8993;SDS011;4532;50.886;4.700;2023-03-11T03:57:40;6.93;;;2.50;;
8993;SDS011;4532;50.886;4.700;2023-03-11T04:00:10;8.60;;;2.77;;
8993;SDS011;4532;50.886;4.700;2023-03-11T04:02:43;6.63;;;2.80;;
8993;SDS011;4532;50.886;4.700;2023-03-11T04:05:10;4.80;;;2.70;;
8993;SDS011;4532;50.886;4.700;2023-03-11T04:07:40;8.20;;;3.07;;
8993;SDS011;4532;50.886;4.700;2023-03-11T04:10:12;5.00;;;2.50;;
8993;SDS011;4532;50.886;4.700;2023-03-11T04:12:41;4.53;;;2.53;;
8993;SDS011;4532;50.886;4.700;2023-03-11T04:15:11;5.70;;;2.60;;
8993;SDS011;4532;50.886;4.700;2023-03-11T04:17:38;7.80;;;2.93;;
8993;SDS011;4532;50.886;4.700;2023-03-11T04:20:05;8.50;;;2.60;;
8993;SDS011;4532;50.886;4.700;2023-03-11T04:22:35;7.90;;;2.73;;
8993;SDS011;4532;50.886;4.700;2023-03-11T04:25:05;5.83;;;2.57;;
8993;SDS011;4532;50.886;4.700;2023-03-11T04:27:33;7.00;;;2.90;;
8993;SDS011;4532;50.886;4.700;2023-03-11T04:30:00;6.67;;;2.87;;
8993;SDS011;4532;50.886;4.700;2023-03-11T04:32:27;6.63;;;2.87;;
8993;SDS011;4532;50.886;4.700;2023-03-11T04:34:54;6.47;;;2.87;;
8993;SDS011;4532;50.886;4.700;2023-03-11T04:37:21;7.40;;;2.73;;
8993;SDS011;4532;50.886;4.700;2023-03-11T04:39:52;5.67;;;2.30;;
8993;SDS011;4532;50.886;4.700;2023-03-11T04:42:19;7.87;;;2.70;;
8993;SDS011;4532;50.886;4.700;2023-03-11T04:44:51;6.83;;;2.90;;
8993;SDS011;4532;50.886;4.700;2023-03-11T04:47:19;7.83;;;2.77;;
8993;SDS011;4532;50.886;4.700;2023-03-11T04:49:47;6.23;;;2.87;;
8993;SDS011;4532;50.886;4.700;2023-03-11T04:52:14;8.83;;;3.13;;
8993;SDS011;4532;50.886;4.700;2023-03-11T04:54:41;7.27;;;2.93;;
8993;SDS011;4532;50.886;4.700;2023-03-11T04:57:11;9.33;;;2.97;;
8993;SDS011;4532;50.886;4.700;2023-03-11T04:59:40;5.83;;;2.73;;
8993;SDS011;4532;50.886;4.700;2023-03-11T05:02:12;7.37;;;3.03;;
8993;SDS011;4532;50.886;4.700;2023-03-11T05:04:39;7.97;;;3.20;;
8993;SDS011;4532;50.886;4.700;2023-03-11T05:07:08;8.97;;;3.20;;
8993;SDS011;4532;50.886;4.700;2023-03-11T05:09:36;6.10;;;2.80;;
8993;SDS011;4532;50.886;4.700;2023-03-11T05:12:05;7.73;;;2.83;;
8993;SDS011;4532;50.886;4.700;2023-03-11T05:14:32;8.77;;;3.43;;
8993;SDS011;4532;50.886;4.700;2023-03-11T05:17:00;7.37;;;2.73;;
8993;SDS011;4532;50.886;4.700;2023-03-11T05:19:27;6.23;;;3.13;;
8993;SDS011;4532;50.886;4.700;2023-03-11T05:22:01;8.10;;;3.10;;
8993;SDS011;4532;50.886;4.700;2023-03-11T05:24:29;7.00;;;2.83;;
8993;SDS011;4532;50.886;4.700;2023-03-11T05:26:57;8.93;;;3.40;;
8993;SDS011;4532;50.886;4.700;2023-03-11T05:29:24;5.90;;;3.20;;
8993;SDS011;4532;50.886;4.700;2023-03-11T05:31:54;7.73;;;3.10;;
8993;SDS011;4532;50.886;4.700;2023-03-11T05:34:23;5.67;;;3.10;;
8993;SDS011;4532;50.886;4.700;2023-03-11T05:36:51;8.83;;;3.40;;
8993;SDS011;4532;50.886;4.700;2023-03-11T05:39:22;6.63;;;3.10;;
8993;SDS011;4532;50.886;4.700;2023-03-11T05:41:51;6.23;;;3.13;;
8993;SDS011;4532;50.886;4.700;2023-03-11T05:44:18;6.50;;;3.30;;
8993;SDS011;4532;50.886;4.700;2023-03-11T05:46:49;7.73;;;3.30;;
8993;SDS011;4532;50.886;4.700;2023-03-11T05:49:16;5.90;;;2.70;;
8993;SDS011;4532;50.886;4.700;2023-03-11T05:51:43;8.37;;;3.93;;
8993;SDS011;4532;50.886;4.700;2023-03-11T05:54:10;6.67;;;3.77;;
8993;SDS011;4532;50.886;4.700;2023-03-11T05:56:41;9.10;;;3.20;;
8993;SDS011;4532;50.886;4.700;2023-03-11T05:59:10;8.60;;;3.53;;
8993;SDS011;4532;50.886;4.700;2023-03-11T06:01:42;9.97;;;4.10;;
8993;SDS011;4532;50.886;4.700;2023-03-11T06:04:12;8.40;;;3.60;;
8993;SDS011;4532;50.886;4.700;2023-03-11T06:06:41;9.00;;;3.30;;
8993;SDS011;4532;50.886;4.700;2023-03-11T06:09:11;6.27;;;3.30;;
8993;SDS011;4532;50.886;4.700;2023-03-11T06:11:42;7.00;;;3.63;;
8993;SDS011;4532;50.886;4.700;2023-03-11T06:14:12;8.40;;;4.30;;
8993;SDS011;4532;50.886;4.700;2023-03-11T06:16:40;9.50;;;3.47;;
8993;SDS011;4532;50.886;4.700;2023-03-11T06:19:12;6.97;;;3.90;;
8993;SDS011;4532;50.886;4.700;2023-03-11T06:21:39;7.97;;;3.67;;
8993;SDS011;4532;50.886;4.700;2023-03-11T06:24:09;9.73;;;3.87;;
8993;SDS011;4532;50.886;4.700;2023-03-11T06:26:36;8.80;;;4.50;;
8993;SDS011;4532;50.886;4.700;2023-03-11T06:29:06;8.30;;;3.90;;
8993;SDS011;4532;50.886;4.700;2023-03-11T06:31:38;6.00;;;3.67;;
8993;SDS011;4532;50.886;4.700;2023-03-11T06:34:05;9.33;;;3.93;;
8993;SDS011;4532;50.886;4.700;2023-03-11T06:36:38;7.77;;;3.90;;
8993;SDS011;4532;50.886;4.700;2023-03-11T06:39:09;10.07;;;4.50;;
8993;SDS011;4532;50.886;4.700;2023-03-11T06:41:41;9.60;;;4.57;;
8993;SDS011;4532;50.886;4.700;2023-03-11T06:44:15;9.63;;;4.40;;
8993;SDS011;4532;50.886;4.700;2023-03-11T06:46:42;8.93;;;4.30;;
8993;SDS011;4532;50.886;4.700;2023-03-11T06:49:13;7.27;;;3.93;;
8993;SDS011;4532;50.886;4.700;2023-03-11T06:51:43;8.00;;;3.97;;
8993;SDS011;4532;50.886;4.700;2023-03-11T06:54:10;9.97;;;4.13;;
8993;SDS011;4532;50.886;4.700;2023-03-11T06:56:38;7.17;;;3.50;;
8993;SDS011;4532;50.886;4.700;2023-03-11T06:59:07;7.20;;;3.73;;
8993;SDS011;4532;50.886;4.700;2023-03-11T07:01:37;8.37;;;4.23;;
8993;SDS011;4532;50.886;4.700;2023-03-11T07:04:04;9.13;;;4.10;;
8993;SDS011;4532;50.886;4.700;2023-03-11T07:06:31;8.37;;;4.50;;
8993;SDS011;4532;50.886;4.700;2023-03-11T07:09:01;8.30;;;4.27;;
8993;SDS011;4532;50.886;4.700;2023-03-11T07:11:30;9.33;;;4.20;;
8993;SDS011;4532;50.886;4.700;2023-03-11T07:13:58;9.23;;;4.30;;
8993;SDS011;4532;50.886;4.700;2023-03-11T07:16:30;5.90;;;3.97;;
8993;SDS011;4532;50.886;4.700;2023-03-11T07:18:59;8.30;;;4.20;;
8993;SDS011;4532;50.886;4.700;2023-03-11T07:21:29;10.40;;;3.87;;
8993;SDS011;4532;50.886;4.700;2023-03-11T07:24:00;8.93;;;4.13;;
8993;SDS011;4532;50.886;4.700;2023-03-11T07:26:29;7.73;;;4.57;;
8993;SDS011;4532;50.886;4.700;2023-03-11T07:29:00;7.90;;;4.47;;
8993;SDS011;4532;50.886;4.700;2023-03-11T07:31:31;6.63;;;4.30;;
8993;SDS011;4532;50.886;4.700;2023-03-11T07:34:03;10.53;;;4.13;;
8993;SDS011;4532;50.886;4.700;2023-03-11T07:36:38;6.83;;;4.50;;
8993;SDS011;4532;50.886;4.700;2023-03-11T07:39:09;10.93;;;5.30;;
8993;SDS011;4532;50.886;4.700;2023-03-11T07:41:46;8.20;;;5.00;;
8993;SDS011;4532;50.886;4.700;2023-03-11T07:44:19;11.07;;;5.10;;
8993;SDS011;4532;50.886;4.700;2023-03-11T07:46:46;8.17;;;4.43;;
8993;SDS011;4532;50.886;4.700;2023-03-11T07:49:18;9.63;;;4.40;;
8993;SDS011;4532;50.886;4.700;2023-03-11T07:51:45;10.83;;;4.80;;
8993;SDS011;4532;50.886;4.700;2023-03-11T07:54:13;9.80;;;4.63;;
8993;SDS011;4532;50.886;4.700;2023-03-11T07:56:42;8.87;;;4.50;;
8993;SDS011;4532;50.886;4.700;2023-03-11T07:59:13;7.03;;;4.27;;
8993;SDS011;4532;50.886;4.700;2023-03-11T08:01:40;10.07;;;5.43;;
8993;SDS011;4532;50.886;4.700;2023-03-11T08:04:13;10.30;;;5.00;;
8993;SDS011;4532;50.886;4.700;2023-03-11T08:06:43;7.63;;;5.07;;
8993;SDS011;4532;50.886;4.700;2023-03-11T08:09:14;8.50;;;4.23;;
8993;SDS011;4532;50.886;4.700;2023-03-11T08:11:41;7.70;;;4.73;;
8993;SDS011;4532;50.886;4.700;2023-03-11T08:14:14;8.27;;;4.50;;
8993;SDS011;4532;50.886;4.700;2023-03-11T08:16:45;7.67;;;4.60;;
8993;SDS011;4532;50.886;4.700;2023-03-11T08:19:15;10.73;;;4.50;;
8993;SDS011;4532;50.886;4.700;2023-03-11T08:21:47;7.87;;;4.70;;
8993;SDS011;4532;50.886;4.700;2023-03-11T08:24:14;9.13;;;4.50;;
8993;SDS011;4532;50.886;4.700;2023-03-11T08:26:44;9.13;;;4.30;;
8993;SDS011;4532;50.886;4.700;2023-03-11T08:29:16;7.57;;;4.30;;
8993;SDS011;4532;50.886;4.700;2023-03-11T08:31:43;9.03;;;4.60;;
8993;SDS011;4532;50.886;4.700;2023-03-11T08:34:15;8.43;;;4.80;;
8993;SDS011;4532;50.886;4.700;2023-03-11T08:36:45;10.60;;;4.50;;
8993;SDS011;4532;50.886;4.700;2023-03-11T08:39:17;8.33;;;4.37;;
8993;SDS011;4532;50.886;4.700;2023-03-11T08:41:49;9.27;;;5.70;;
8993;SDS011;4532;50.886;4.700;2023-03-11T08:44:16;8.93;;;4.67;;
8993;SDS011;4532;50.886;4.700;2023-03-11T08:46:46;8.70;;;4.63;;
8993;SDS011;4532;50.886;4.700;2023-03-11T08:49:16;7.73;;;4.87;;
8993;SDS011;4532;50.886;4.700;2023-03-11T08:51:46;9.87;;;4.30;;
8993;SDS011;4532;50.886;4.700;2023-03-11T08:54:17;7.33;;;4.93;;
8993;SDS011;4532;50.886;4.700;2023-03-11T08:56:47;8.07;;;4.33;;
8993;SDS011;4532;50.886;4.700;2023-03-11T08:59:14;12.87;;;5.20;;
8993;SDS011;4532;50.886;4.700;2023-03-11T09:01:43;7.97;;;4.30;;
8993;SDS011;4532;50.886;4.700;2023-03-11T09:04:13;8.77;;;4.03;;
8993;SDS011;4532;50.886;4.700;2023-03-11T09:06:47;10.17;;;4.30;;
8993;SDS011;4532;50.886;4.700;2023-03-11T09:09:17;8.77;;;4.63;;
8993;SDS011;4532;50.886;4.700;2023-03-11T09:11:46;8.00;;;4.20;;
8993;SDS011;4532;50.886;4.700;2023-03-11T09:14:14;6.47;;;3.60;;
8993;SDS011;4532;50.886;4.700;2023-03-11T09:16:48;8.03;;;3.33;;
8993;SDS011;4532;50.886;4.700;2023-03-11T09:19:22;6.03;;;3.40;;
8993;SDS011;4532;50.886;4.700;2023-03-11T09:21:50;7.47;;;3.53;;
8993;SDS011;4532;50.886;4.700;2023-03-11T09:24:19;6.70;;;3.10;;
8993;SDS011;4532;50.886;4.700;2023-03-11T09:26:46;6.73;;;3.50;;
8993;SDS011;4532;50.886;4.700;2023-03-11T09:29:16;13.23;;;3.33;;
8993;SDS011;4532;50.886;4.700;2023-03-11T09:31:43;7.90;;;3.50;;
8993;SDS011;4532;50.886;4.700;2023-03-11T09:34:12;6.47;;;1.73;;
8993;SDS011;4532;50.886;4.700;2023-03-11T09:36:41;14.93;;;2.87;;
8993;SDS011;4532;50.886;4.700;2023-03-11T09:39:11;7.07;;;1.50;;
8993;SDS011;4532;50.886;4.700;2023-03-11T09:50:21;5.43;;;1.33;;
8993;SDS011;4532;50.886;4.700;2023-03-11T09:56:08;5.83;;;1.20;;
8993;SDS011;4532;50.886;4.700;2023-03-11T09:58:44;4.57;;;1.10;;
8993;SDS011;4532;50.886;4.700;2023-03-11T10:01:34;4.30;;;1.40;;
8993;SDS011;4532;50.886;4.700;2023-03-11T10:06:48;5.60;;;1.30;;
8993;SDS011;4532;50.886;4.700;2023-03-11T10:12:20;2.93;;;1.00;;
8993;SDS011;4532;50.886;4.700;2023-03-11T10:14:53;3.43;;;0.87;;
8993;SDS011;4532;50.886;4.700;2023-03-11T10:23:43;4.60;;;1.60;;
8993;SDS011;4532;50.886;4.700;2023-03-11T10:28:55;4.00;;;1.30;;
8993;SDS011;4532;50.886;4.700;2023-03-11T10:31:35;3.77;;;1.17;;
8993;SDS011;4532;50.886;4.700;2023-03-11T10:34:04;6.67;;;1.40;;
8993;SDS011;4532;50.886;4.700;2023-03-11T10:36:45;7.73;;;1.33;;
8993;SDS011;4532;50.886;4.700;2023-03-11T10:39:24;3.10;;;1.47;;
8993;SDS011;4532;50.886;4.700;2023-03-11T10:42:03;7.37;;;1.43;;
8993;SDS011;4532;50.886;4.700;2023-03-11T10:44:34;4.93;;;1.40;;
8993;SDS011;4532;50.886;4.700;2023-03-11T10:47:06;5.70;;;1.27;;
8993;SDS011;4532;50.886;4.700;2023-03-11T10:49:43;2.87;;;1.23;;
8993;SDS011;4532;50.886;4.700;2023-03-11T10:52:11;3.57;;;1.30;;
8993;SDS011;4532;50.886;4.700;2023-03-11T10:54:46;3.50;;;1.07;;
8993;SDS011;4532;50.886;4.700;2023-03-11T10:57:28;3.37;;;1.30;;
8993;SDS011;4532;50.886;4.700;2023-03-11T11:00:01;6.43;;;1.30;;
8993;SDS011;4532;50.886;4.700;2023-03-11T11:07:46;3.90;;;1.07;;
8993;SDS011;4532;50.886;4.700;2023-03-11T11:15:24;8.33;;;1.43;;
8993;SDS011;4532;50.886;4.700;2023-03-11T11:17:58;3.90;;;1.43;;
8993;SDS011;4532;50.886;4.700;2023-03-11T11:20:32;5.40;;;1.60;;
8993;SDS011;4532;50.886;4.700;2023-03-11T11:23:01;4.13;;;1.30;;
8993;SDS011;4532;50.886;4.700;2023-03-11T11:28:03;2.67;;;0.97;;
8993;SDS011;4532;50.886;4.700;2023-03-11T11:33:32;3.83;;;1.83;;
8993;SDS011;4532;50.886;4.700;2023-03-11T11:36:10;3.13;;;1.23;;
8993;SDS011;4532;50.886;4.700;2023-03-11T11:38:42;4.27;;;1.20;;
8993;SDS011;4532;50.886;4.700;2023-03-11T11:41:14;5.23;;;1.30;;
8993;SDS011;4532;50.886;4.700;2023-03-11T11:46:23;5.73;;;1.17;;
8993;SDS011;4532;50.886;4.700;2023-03-11T11:57:28;4.53;;;1.17;;
8993;SDS011;4532;50.886;4.700;2023-03-11T11:59:58;4.20;;;1.10;;
8993;SDS011;4532;50.886;4.700;2023-03-11T12:05:29;4.23;;;1.13;;
8993;SDS011;4532;50.886;4.700;2023-03-11T12:16:37;3.50;;;1.30;;
8993;SDS011;4532;50.886;4.700;2023-03-11T12:27:17;3.13;;;1.27;;
8993;SDS011;4532;50.886;4.700;2023-03-11T12:29:51;4.27;;;1.10;;
8993;SDS011;4532;50.886;4.700;2023-03-11T12:32:46;4.83;;;1.30;;
8993;SDS011;4532;50.886;4.700;2023-03-11T12:35:20;5.20;;;1.00;;
8993;SDS011;4532;50.886;4.700;2023-03-11T12:46:04;4.43;;;1.60;;
8993;SDS011;4532;50.886;4.700;2023-03-11T13:16:44;3.07;;;0.90;;
8993;SDS011;4532;50.886;4.700;2023-03-11T13:21:58;3.43;;;1.20;;
8993;SDS011;4532;50.886;4.700;2023-03-11T13:40:40;2.87;;;0.83;;
8993;SDS011;4532;50.886;4.700;2023-03-11T13:43:14;3.40;;;1.10;;
8993;SDS011;4532;50.886;4.700;2023-03-11T13:45:46;5.67;;;1.20;;
8993;SDS011;4532;50.886;4.700;2023-03-11T13:48:25;2.67;;;0.77;;
8993;SDS011;4532;50.886;4.700;2023-03-11T13:53:56;2.83;;;1.00;;
8993;SDS011;4532;50.886;4.700;2023-03-11T13:56:54;3.17;;;0.87;;
8993;SDS011;4532;50.886;4.700;2023-03-11T13:59:26;2.73;;;0.80;;
8993;SDS011;4532;50.886;4.700;2023-03-11T14:04:33;1.83;;;0.73;;
8993;SDS011;4532;50.886;4.700;2023-03-11T14:07:12;5.03;;;0.90;;
8993;SDS011;4532;50.886;4.700;2023-03-11T14:09:47;3.63;;;0.90;;
8993;SDS011;4532;50.886;4.700;2023-03-11T14:12:14;1.43;;;0.70;;
8993;SDS011;4532;50.886;4.700;2023-03-11T14:14:50;6.13;;;1.13;;
8993;SDS011;4532;50.886;4.700;2023-03-11T14:17:24;3.03;;;0.97;;
8993;SDS011;4532;50.886;4.700;2023-03-11T14:20:04;3.83;;;0.80;;
8993;SDS011;4532;50.886;4.700;2023-03-11T14:22:35;2.63;;;1.10;;
8993;SDS011;4532;50.886;4.700;2023-03-11T14:25:06;3.30;;;1.00;;
8993;SDS011;4532;50.886;4.700;2023-03-11T14:27:38;3.50;;;0.90;;
8993;SDS011;4532;50.886;4.700;2023-03-11T14:30:06;2.53;;;0.80;;
8993;SDS011;4532;50.886;4.700;2023-03-11T14:32:37;5.37;;;0.83;;
8993;SDS011;4532;50.886;4.700;2023-03-11T14:35:17;7.40;;;1.30;;
8993;SDS011;4532;50.886;4.700;2023-03-11T14:37:46;4.60;;;1.10;;
8993;SDS011;4532;50.886;4.700;2023-03-11T14:40:20;3.43;;;1.13;;
8993;SDS011;4532;50.886;4.700;2023-03-11T14:43:03;2.70;;;0.90;;
8993;SDS011;4532;50.886;4.700;2023-03-11T14:45:34;3.33;;;1.13;;
8993;SDS011;4532;50.886;4.700;2023-03-11T14:48:11;2.60;;;1.00;;
8993;SDS011;4532;50.886;4.700;2023-03-11T14:51:00;2.97;;;0.73;;
8993;SDS011;4532;50.886;4.700;2023-03-11T14:54:03;5.07;;;1.30;;
8993;SDS011;4532;50.886;4.700;2023-03-11T14:56:43;3.87;;;1.27;;
8993;SDS011;4532;50.886;4.700;2023-03-11T14:59:24;5.47;;;1.13;;
8993;SDS011;4532;50.886;4.700;2023-03-11T15:02:08;4.13;;;1.07;;
8993;SDS011;4532;50.886;4.700;2023-03-11T15:04:54;4.40;;;1.00;;
8993;SDS011;4532;50.886;4.700;2023-03-11T15:07:25;2.97;;;0.83;;
8993;SDS011;4532;50.886;4.700;2023-03-11T15:09:57;5.73;;;1.43;;
8993;SDS011;4532;50.886;4.700;2023-03-11T15:12:31;3.43;;;0.80;;
8993;SDS011;4532;50.886;4.700;2023-03-11T15:15:19;2.17;;;0.87;;
8993;SDS011;4532;50.886;4.700;2023-03-11T15:17:51;3.80;;;1.30;;
8993;SDS011;4532;50.886;4.700;2023-03-11T15:23:01;3.93;;;1.23;;
8993;SDS011;4532;50.886;4.700;2023-03-11T15:25:36;3.53;;;1.10;;
8993;SDS011;4532;50.886;4.700;2023-03-11T15:31:12;4.47;;;1.10;;
8993;SDS011;4532;50.886;4.700;2023-03-11T15:33:41;4.43;;;1.23;;
8993;SDS011;4532;50.886;4.700;2023-03-11T15:36:27;4.70;;;1.20;;
8993;SDS011;4532;50.886;4.700;2023-03-11T15:41:42;3.50;;;1.27;;
8993;SDS011;4532;50.886;4.700;2023-03-11T15:46:52;2.57;;;0.90;;
8993;SDS011;4532;50.886;4.700;2023-03-11T15:49:19;5.03;;;1.47;;
8993;SDS011;4532;50.886;4.700;2023-03-11T15:51:51;4.47;;;1.07;;
8993;SDS011;4532;50.886;4.700;2023-03-11T15:54:18;2.60;;;1.20;;
8993;SDS011;4532;50.886;4.700;2023-03-11T15:56:48;2.37;;;0.90;;
8993;SDS011;4532;50.886;4.700;2023-03-11T15:59:17;3.90;;;1.20;;
8993;SDS011;4532;50.886;4.700;2023-03-11T16:01:44;5.47;;;1.23;;
8993;SDS011;4532;50.886;4.700;2023-03-11T16:04:13;3.53;;;1.10;;
8993;SDS011;4532;50.886;4.700;2023-03-11T16:06:45;4.30;;;1.30;;
8993;SDS011;4532;50.886;4.700;2023-03-11T16:09:28;4.53;;;2.03;;
8993;SDS011;4532;50.886;4.700;2023-03-11T16:11:57;5.67;;;2.13;;
8993;SDS011;4532;50.886;4.700;2023-03-11T16:14:26;3.43;;;1.47;;
8993;SDS011;4532;50.886;4.700;2023-03-11T16:16:54;3.80;;;1.23;;
8993;SDS011;4532;50.886;4.700;2023-03-11T16:19:25;4.93;;;1.47;;
8993;SDS011;4532;50.886;4.700;2023-03-11T16:21:54;5.53;;;1.60;;
8993;SDS011;4532;50.886;4.700;2023-03-11T16:24:23;4.67;;;1.20;;
8993;SDS011;4532;50.886;4.700;2023-03-11T16:26:51;4.53;;;1.47;;
8993;SDS011;4532;50.886;4.700;2023-03-11T16:29:24;5.33;;;1.40;;
8993;SDS011;4532;50.886;4.700;2023-03-11T16:31:55;2.67;;;1.20;;
8993;SDS011;4532;50.886;4.700;2023-03-11T16:34:24;2.97;;;1.20;;
8993;SDS011;4532;50.886;4.700;2023-03-11T16:36:54;2.90;;;1.30;;
8993;SDS011;4532;50.886;4.700;2023-03-11T16:39:24;2.73;;;1.20;;
8993;SDS011;4532;50.886;4.700;2023-03-11T16:41:51;3.77;;;1.33;;
8993;SDS011;4532;50.886;4.700;2023-03-11T16:44:18;5.73;;;2.10;;
8993;SDS011;4532;50.886;4.700;2023-03-11T16:46:48;5.33;;;1.60;;
8993;SDS011;4532;50.886;4.700;2023-03-11T16:49:20;3.40;;;1.10;;
8993;SDS011;4532;50.886;4.700;2023-03-11T16:51:48;2.63;;;1.27;;
8993;SDS011;4532;50.886;4.700;2023-03-11T16:54:17;2.33;;;1.30;;
8993;SDS011;4532;50.886;4.700;2023-03-11T16:56:49;4.63;;;1.37;;
8993;SDS011;4532;50.886;4.700;2023-03-11T16:59:16;4.47;;;1.20;;
8993;SDS011;4532;50.886;4.700;2023-03-11T17:01:43;4.23;;;1.47;;
8993;SDS011;4532;50.886;4.700;2023-03-11T17:04:10;4.60;;;1.43;;
8993;SDS011;4532;50.886;4.700;2023-03-11T17:06:40;4.30;;;1.10;;
8993;SDS011;4532;50.886;4.700;2023-03-11T17:09:07;3.57;;;1.60;;
8993;SDS011;4532;50.886;4.700;2023-03-11T17:11:35;5.80;;;1.70;;
8993;SDS011;4532;50.886;4.700;2023-03-11T17:14:02;6.73;;;1.60;;
8993;SDS011;4532;50.886;4.700;2023-03-11T17:16:42;1.80;;;1.20;;
8993;SDS011;4532;50.886;4.700;2023-03-11T17:19:10;3.70;;;1.20;;
8993;SDS011;4532;50.886;4.700;2023-03-11T17:21:44;5.37;;;1.30;;
8993;SDS011;4532;50.886;4.700;2023-03-11T17:24:11;5.10;;;1.30;;
8993;SDS011;4532;50.886;4.700;2023-03-11T17:26:41;5.83;;;1.60;;
8993;SDS011;4532;50.886;4.700;2023-03-11T17:29:08;5.90;;;1.50;;
8993;SDS011;4532;50.886;4.700;2023-03-11T17:31:35;2.63;;;1.20;;
8993;SDS011;4532;50.886;4.700;2023-03-11T17:34:03;4.03;;;1.30;;
8993;SDS011;4532;50.886;4.700;2023-03-11T17:36:30;5.60;;;1.63;;
8993;SDS011;4532;50.886;4.700;2023-03-11T17:38:58;3.87;;;1.37;;
8993;SDS011;4532;50.886;4.700;2023-03-11T17:41:29;5.53;;;1.53;;
8993;SDS011;4532;50.886;4.700;2023-03-11T17:43:59;3.07;;;1.23;;
8993;SDS011;4532;50.886;4.700;2023-03-11T17:46:26;4.53;;;1.60;;
8993;SDS011;4532;50.886;4.700;2023-03-11T17:48:53;6.00;;;1.87;;
8993;SDS011;4532;50.886;4.700;2023-03-11T17:51:23;6.00;;;1.43;;
8993;SDS011;4532;50.886;4.700;2023-03-11T17:53:54;3.07;;;1.37;;
8993;SDS011;4532;50.886;4.700;2023-03-11T17:56:25;5.03;;;1.47;;
8993;SDS011;4532;50.886;4.700;2023-03-11T17:58:55;3.90;;;1.30;;
8993;SDS011;4532;50.886;4.700;2023-03-11T18:01:24;5.80;;;1.67;;
8993;SDS011;4532;50.886;4.700;2023-03-11T18:03:53;7.40;;;2.20;;
8993;SDS011;4532;50.886;4.700;2023-03-11T18:06:23;5.30;;;1.60;;
8993;SDS011;4532;50.886;4.700;2023-03-11T18:08:58;3.77;;;1.73;;
8993;SDS011;4532;50.886;4.700;2023-03-11T18:11:27;5.00;;;1.73;;
8993;SDS011;4532;50.886;4.700;2023-03-11T18:13:55;5.20;;;1.83;;
8993;SDS011;4532;50.886;4.700;2023-03-11T18:16:23;4.20;;;1.63;;